Time;durP1;ratioP1;P1;durP2;ratioP2;P2;SDS_P1;SDS_P2;PMS_P1;PMS_P2;Temp;Humidity;BMP_temperature;BMP_pressure;BME280_temperature;BME280_humidity;BME280_pressure;Samples;Min_cycle;Max_cycle;Signal;HPM_P1;HPM_P2
2020/12/01 00:00:17;;;;;;;43.30;19.00;;;2.20;87.70;;;;;;5027249;28;20961;-74
2020/12/01 00:02:44;;;;;;;40.03;17.25;;;2.20;88.00;;;;;;5028238;28;20490;-73
2020/12/01 00:05:11;;;;;;;38.75;16.85;;;2.20;88.40;;;;;;5023298;28;20749;-74
2020/12/01 00:07:37;;;;;;;37.65;17.35;;;2.20;88.70;;;;;;5023631;28;20532;-74
2020/12/01 00:10:04;;;;;;;35.90;16.73;;;2.30;89.20;;;;;;5017309;28;20208;-74
2020/12/01 00:12:30;;;;;;;41.85;17.67;;;2.40;89.00;;;;;;5032088;28;20191;-74
2020/12/01 00:14:55;;;;;;;44.93;19.03;;;2.40;89.00;;;;;;5013340;28;20261;-73
2020/12/01 00:17:21;;;;;;;37.13;15.97;;;2.40;89.00;;;;;;5019010;28;20191;-73
2020/12/01 00:19:47;;;;;;;36.30;15.93;;;2.50;89.30;;;;;;5033478;28;20255;-72
2020/12/01 00:22:13;;;;;;;39.90;18.30;;;2.50;89.60;;;;;;5033323;28;20208;-74
2020/12/01 00:24:39;;;;;;;42.60;19.60;;;2.40;89.70;;;;;;5018867;28;20730;-73
2020/12/01 00:27:05;;;;;;;38.75;17.70;;;2.40;89.90;;;;;;5031628;28;20235;-75
2020/12/01 00:29:30;;;;;;;43.83;18.13;;;2.40;90.30;;;;;;5031281;28;20213;-74
2020/12/01 00:31:56;;;;;;;42.00;17.27;;;2.30;90.60;;;;;;5030960;28;20242;-73
2020/12/01 00:34:22;;;;;;;35.57;16.70;;;2.30;90.90;;;;;;5028923;28;20193;-73
2020/12/01 00:36:47;;;;;;;47.70;18.37;;;2.20;91.50;;;;;;5030010;28;20188;-72
2020/12/01 00:39:13;;;;;;;48.17;18.57;;;2.10;92.10;;;;;;5028504;28;20235;-72
2020/12/01 00:41:39;;;;;;;46.93;20.70;;;2.00;92.60;;;;;;5029999;28;20201;-73
2020/12/01 00:44:06;;;;;;;47.55;18.60;;;2.00;93.20;;;;;;5027758;28;20655;-72
2020/12/01 00:46:32;;;;;;;48.87;20.27;;;2.00;93.90;;;;;;5016917;28;20257;-72
2020/12/01 00:48:58;;;;;;;43.90;17.47;;;2.10;94.10;;;;;;5016402;28;20454;-72
2020/12/01 00:51:24;;;;;;;44.40;19.15;;;2.10;94.20;;;;;;5032283;28;20511;-72
2020/12/01 00:53:49;;;;;;;48.40;20.83;;;2.10;94.60;;;;;;5036931;28;20228;-73
2020/12/01 00:56:22;;;;;;;42.33;16.70;;;2.20;94.70;;;;;;5036217;28;20989;-72
2020/12/01 00:58:49;;;;;;;39.72;18.25;;;2.20;94.70;;;;;;5023428;28;20235;-73
2020/12/01 01:01:15;;;;;;;45.97;19.10;;;2.30;94.60;;;;;;5028387;28;20609;-73
2020/12/01 01:03:41;;;;;;;40.92;17.00;;;2.30;94.60;;;;;;5028817;28;20216;-73
2020/12/01 01:06:10;;;;;;;48.55;19.02;;;2.30;94.60;;;;;;5028282;28;20192;-73
2020/12/01 01:08:35;;;;;;;36.70;16.33;;;2.30;94.90;;;;;;5029274;28;20205;-74
2020/12/01 01:11:01;;;;;;;44.00;18.23;;;2.30;95.00;;;;;;5027956;28;20181;-74
2020/12/01 01:13:27;;;;;;;42.83;17.77;;;2.30;95.30;;;;;;5028842;28;20192;-72
2020/12/01 01:15:53;;;;;;;51.87;18.13;;;2.30;95.30;;;;;;5031743;28;20185;-73
2020/12/01 01:18:19;;;;;;;44.20;16.23;;;2.30;95.70;;;;;;5034166;28;20264;-73
2020/12/01 01:20:44;;;;;;;41.10;16.63;;;2.20;96.00;;;;;;5034089;28;20194;-73
2020/12/01 01:23:10;;;;;;;38.43;17.93;;;2.20;96.10;;;;;;5035448;28;20550;-71
2020/12/01 01:25:36;;;;;;;46.70;18.87;;;2.10;96.40;;;;;;5029809;28;20181;-72
2020/12/01 01:28:01;;;;;;;50.73;18.80;;;2.10;96.60;;;;;;5029427;28;20208;-72
2020/12/01 01:30:27;;;;;;;42.40;17.53;;;2.10;96.80;;;;;;5031236;28;20181;-72
2020/12/01 01:32:53;;;;;;;47.50;17.70;;;2.10;97.00;;;;;;5031378;28;20193;-72
2020/12/01 01:35:19;;;;;;;53.03;18.93;;;2.20;97.00;;;;;;5029715;28;20224;-72
2020/12/01 01:37:45;;;;;;;47.42;19.33;;;2.20;97.10;;;;;;5028530;28;20462;-73
2020/12/01 01:40:24;;;;;;;49.00;19.10;;;2.10;97.20;;;;;;5029384;28;20209;-72
2020/12/01 01:42:51;;;;;;;41.40;16.33;;;2.10;97.30;;;;;;5043810;28;20435;-71
2020/12/01 01:45:40;;;;;;;40.42;18.20;;;2.20;97.40;;;;;;5025058;28;20692;-74
2020/12/01 01:48:17;;;;;;;47.80;17.63;;;2.20;97.50;;;;;;5026597;28;20209;-73
2020/12/01 01:50:56;;;;;;;52.50;19.80;;;2.20;97.50;;;;;;5020989;28;20188;-73
2020/12/01 01:53:22;;;;;;;46.70;18.58;;;2.20;97.30;;;;;;5031810;28;20185;-74
2020/12/01 01:55:50;;;;;;;44.73;18.17;;;2.20;97.40;;;;;;5032292;28;20181;-72
2020/12/01 01:58:17;;;;;;;44.13;16.20;;;2.20;97.30;;;;;;5019158;28;20690;-72
2020/12/01 02:01:00;;;;;;;40.53;16.42;;;2.10;97.40;;;;;;5020872;28;20198;-74
2020/12/01 02:03:29;;;;;;;40.22;18.27;;;2.10;97.70;;;;;;5024044;28;20217;-74
2020/12/01 02:05:55;;;;;;;42.78;16.77;;;2.10;97.70;;;;;;5024869;28;20679;-74
2020/12/01 02:08:22;;;;;;;38.95;16.60;;;2.10;97.50;;;;;;5024379;28;20236;-74
2020/12/01 02:10:49;;;;;;;42.55;16.25;;;2.10;97.60;;;;;;5026368;28;20268;-74
2020/12/01 02:13:16;;;;;;;45.90;18.00;;;2.20;97.70;;;;;;5031683;28;20193;-73
2020/12/01 02:15:43;;;;;;;48.95;18.83;;;2.10;97.70;;;;;;5029769;28;21051;-72
2020/12/01 02:18:08;;;;;;;47.75;17.67;;;2.20;97.80;;;;;;5030445;28;20225;-71
2020/12/01 02:20:36;;;;;;;41.07;17.30;;;2.20;97.80;;;;;;5031781;28;20279;-71
2020/12/01 02:23:02;;;;;;;44.72;18.27;;;2.20;97.80;;;;;;5022605;28;20206;-74
2020/12/01 02:25:28;;;;;;;43.23;18.80;;;2.20;97.70;;;;;;5011871;28;20273;-72
2020/12/01 02:27:56;;;;;;;38.97;16.90;;;2.20;97.50;;;;;;5034551;28;20779;-72
2020/12/01 02:30:23;;;;;;;36.80;16.02;;;2.20;97.60;;;;;;5042125;28;20192;-73
2020/12/01 02:32:49;;;;;;;41.30;17.08;;;2.30;97.60;;;;;;5032777;28;20181;-73
2020/12/01 02:35:15;;;;;;;42.33;17.60;;;2.30;97.60;;;;;;5040734;28;20200;-75
2020/12/01 02:37:45;;;;;;;37.50;17.10;;;2.40;97.60;;;;;;5032548;28;20186;-74
2020/12/01 02:40:14;;;;;;;44.38;17.30;;;2.40;97.70;;;;;;5026576;28;20437;-72
2020/12/01 02:42:41;;;;;;;53.42;18.52;;;2.50;97.70;;;;;;5031035;28;20694;-73
2020/12/01 02:45:07;;;;;;;41.72;17.33;;;2.60;97.50;;;;;;5018934;28;20204;-71
2020/12/01 02:47:33;;;;;;;45.92;17.70;;;2.60;97.40;;;;;;5022652;28;20239;-72
2020/12/01 02:49:58;;;;;;;41.30;17.53;;;2.50;97.30;;;;;;5016462;28;20687;-73
2020/12/01 02:52:24;;;;;;;43.30;17.70;;;2.50;96.90;;;;;;5021296;28;20260;-74
2020/12/01 02:54:50;;;;;;;42.57;17.53;;;2.40;96.60;;;;;;5033349;28;20193;-74
2020/12/01 02:57:18;;;;;;;45.45;17.33;;;2.40;96.60;;;;;;5026886;28;20971;-75
2020/12/01 02:59:43;;;;;;;38.15;16.60;;;2.40;96.80;;;;;;5027405;28;20202;-73
2020/12/01 03:02:09;;;;;;;38.43;15.57;;;2.30;96.70;;;;;;5030858;28;20211;-73
2020/12/01 03:04:35;;;;;;;45.63;17.13;;;2.30;96.90;;;;;;5025635;28;20715;-73
2020/12/01 03:07:01;;;;;;;41.50;17.30;;;2.30;97.20;;;;;;5030742;28;20188;-74
2020/12/01 03:09:27;;;;;;;41.17;16.63;;;2.40;97.40;;;;;;5026582;28;20209;-73
2020/12/01 03:11:53;;;;;;;40.17;15.98;;;2.40;97.50;;;;;;5026823;28;20601;-74
2020/12/01 03:14:19;;;;;;;40.30;15.67;;;2.40;97.70;;;;;;5028970;28;20188;-72
2020/12/01 03:16:49;;;;;;;34.92;14.50;;;2.50;97.80;;;;;;5020663;28;20677;-72
2020/12/01 03:19:15;;;;;;;44.42;17.92;;;2.50;97.80;;;;;;5030641;28;20211;-73
2020/12/01 03:21:41;;;;;;;43.13;15.50;;;2.60;97.80;;;;;;5019741;28;20190;-73
2020/12/01 03:24:07;;;;;;;43.07;16.60;;;2.60;97.60;;;;;;5026758;28;20482;-73
2020/12/01 03:26:32;;;;;;;37.87;14.80;;;2.60;97.50;;;;;;5018676;28;20744;-70
2020/12/01 03:28:58;;;;;;;36.40;15.37;;;2.60;97.60;;;;;;5014226;28;20561;-70
2020/12/01 03:31:24;;;;;;;43.33;15.40;;;2.60;97.70;;;;;;5027027;28;20254;-73
2020/12/01 03:33:49;;;;;;;36.10;15.70;;;2.70;97.80;;;;;;5030409;28;20189;-71
2020/12/01 03:36:17;;;;;;;33.63;13.60;;;2.70;97.90;;;;;;5029942;28;20231;-73
2020/12/01 03:38:43;;;;;;;35.10;13.75;;;2.70;97.90;;;;;;5017925;28;20217;-71
2020/12/01 03:41:09;;;;;;;38.50;15.10;;;2.70;97.90;;;;;;5028975;28;20200;-70
2020/12/01 03:43:34;;;;;;;34.83;14.97;;;2.80;97.90;;;;;;5018410;28;20214;-72
2020/12/01 03:46:01;;;;;;;42.40;16.27;;;2.80;97.90;;;;;;5030697;28;20232;-72
2020/12/01 03:48:27;;;;;;;42.80;16.30;;;2.80;97.90;;;;;;5030019;28;20447;-71
2020/12/01 03:50:53;;;;;;;38.30;15.80;;;2.70;98.00;;;;;;5030091;28;20185;-72
2020/12/01 03:53:18;;;;;;;34.50;14.97;;;2.70;98.30;;;;;;5029776;28;20196;-73
2020/12/01 03:55:44;;;;;;;37.43;15.20;;;2.70;98.40;;;;;;5028998;28;20265;-72
2020/12/01 03:58:10;;;;;;;39.50;15.00;;;2.70;98.60;;;;;;5016440;28;20698;-73
2020/12/01 04:00:36;;;;;;;39.20;14.43;;;2.70;98.90;;;;;;5016802;28;20189;-73
2020/12/01 04:03:01;;;;;;;38.33;17.13;;;2.70;98.90;;;;;;5028709;28;20656;-72
2020/12/01 04:05:28;;;;;;;48.50;17.73;;;2.70;99.00;;;;;;5029616;28;20660;-72
2020/12/01 04:07:55;;;;;;;39.92;14.80;;;2.70;99.20;;;;;;5029829;28;20181;-72
2020/12/01 04:10:24;;;;;;;34.78;14.43;;;2.80;99.20;;;;;;5029491;28;20181;-71
2020/12/01 04:12:50;;;;;;;44.25;15.30;;;2.80;99.20;;;;;;5029790;28;20177;-73
2020/12/01 04:15:17;;;;;;;43.45;15.38;;;2.80;99.20;;;;;;5032851;28;20296;-71
2020/12/01 04:17:43;;;;;;;42.85;18.25;;;2.80;99.20;;;;;;5037014;28;20279;-71
2020/12/01 04:20:09;;;;;;;35.05;14.95;;;2.70;99.20;;;;;;5030501;28;20695;-70
2020/12/01 04:22:36;;;;;;;36.88;15.70;;;2.80;99.40;;;;;;5030804;28;20617;-73
2020/12/01 04:25:04;;;;;;;35.63;14.30;;;2.80;99.50;;;;;;5030413;28;20208;-72
2020/12/01 04:27:30;;;;;;;40.22;16.52;;;2.80;99.50;;;;;;5029355;28;20220;-71
2020/12/01 04:29:55;;;;;;;38.13;16.17;;;2.80;99.40;;;;;;5028446;28;20633;-71
2020/12/01 04:32:21;;;;;;;40.10;15.70;;;2.80;99.20;;;;;;5029132;28;20189;-73
2020/12/01 04:34:47;;;;;;;37.60;14.93;;;2.80;99.30;;;;;;5027915;28;20189;-74
2020/12/01 04:37:13;;;;;;;37.10;13.97;;;2.80;99.30;;;;;;5028970;28;20561;-74
2020/12/01 04:39:39;;;;;;;34.43;14.30;;;2.80;99.30;;;;;;5029248;28;20451;-73
2020/12/01 04:42:06;;;;;;;31.00;14.37;;;2.80;99.40;;;;;;5027922;28;20451;-73
2020/12/01 04:44:41;;;;;;;34.15;13.73;;;2.80;99.40;;;;;;5029231;28;20208;-71
2020/12/01 04:47:24;;;;;;;44.13;15.77;;;2.80;99.50;;;;;;5028816;28;20306;-72
2020/12/01 04:50:11;;;;;;;34.92;14.20;;;2.80;99.40;;;;;;5028973;28;20586;-72
2020/12/01 04:53:12;;;;;;;35.78;15.55;;;2.80;99.50;;;;;;5026878;28;20904;-73
2020/12/01 04:56:14;;;;;;;36.80;15.43;;;2.80;99.40;;;;;;5021109;28;20208;-71
2020/12/01 04:58:55;;;;;;;34.10;15.45;;;2.80;99.50;;;;;;5023291;28;20251;-72
2020/12/01 05:01:32;;;;;;;44.05;14.65;;;2.80;99.60;;;;;;5026298;28;20192;-71
2020/12/01 05:04:05;;;;;;;35.30;14.40;;;2.80;99.70;;;;;;5025800;28;20208;-71
2020/12/01 05:06:44;;;;;;;38.53;14.10;;;2.80;99.70;;;;;;5038439;28;20197;-73
2020/12/01 05:09:15;;;;;;;37.10;13.80;;;2.80;99.90;;;;;;5029608;28;20212;-74
2020/12/01 05:11:59;;;;;;;34.03;13.05;;;2.80;99.90;;;;;;5041729;28;20212;-74
2020/12/01 05:14:37;;;;;;;34.80;13.90;;;2.90;99.90;;;;;;5009829;28;20223;-72
2020/12/01 05:17:15;;;;;;;30.95;12.98;;;2.90;99.90;;;;;;5025950;28;20243;-72
2020/12/01 05:19:46;;;;;;;33.80;14.73;;;2.90;99.90;;;;;;5026259;28;20243;-72
2020/12/01 05:22:15;;;;;;;35.25;12.05;;;2.90;99.90;;;;;;5030099;28;20201;-72
2020/12/01 05:24:50;;;;;;;27.35;12.85;;;3.00;99.90;;;;;;5029878;28;20217;-73
2020/12/01 05:27:24;;;;;;;34.53;14.55;;;3.00;99.90;;;;;;5013437;28;20187;-74
2020/12/01 05:29:54;;;;;;;32.50;14.00;;;3.10;99.90;;;;;;5030562;28;20283;-73
2020/12/01 05:32:28;;;;;;;31.35;12.57;;;3.20;99.90;;;;;;5020093;28;20301;-74
2020/12/01 05:34:53;;;;;;;32.60;13.70;;;3.20;99.90;;;;;;5031657;28;20572;-73
2020/12/01 05:37:19;;;;;;;31.33;13.23;;;3.10;99.50;;;;;;5031172;28;20192;-73
2020/12/01 05:39:45;;;;;;;33.47;14.90;;;3.20;99.30;;;;;;5022899;28;20917;-72
2020/12/01 05:42:19;;;;;;;31.10;13.27;;;3.20;99.20;;;;;;5024662;28;20209;-72
2020/12/01 05:44:58;;;;;;;35.70;14.65;;;3.20;99.10;;;;;;5020882;28;20463;-73
2020/12/01 05:47:38;;;;;;;42.70;15.80;;;3.30;99.20;;;;;;5032588;28;20295;-72
2020/12/01 05:50:10;;;;;;;33.33;13.73;;;3.30;99.10;;;;;;5019290;28;20692;-72
2020/12/01 05:53:07;;;;;;;31.65;14.10;;;3.30;99.00;;;;;;5033177;28;20192;-72
2020/12/01 05:55:33;;;;;;;33.55;14.52;;;3.40;98.80;;;;;;5032898;28;20260;-72
2020/12/01 05:58:00;;;;;;;40.17;15.83;;;3.30;98.60;;;;;;5032618;28;20779;-72
2020/12/01 06:00:30;;;;;;;37.28;14.13;;;3.30;98.60;;;;;;5032566;28;20227;-73
2020/12/01 06:02:58;;;;;;;34.95;14.40;;;3.30;98.60;;;;;;5030823;28;20513;-72
2020/12/01 06:05:25;;;;;;;31.95;13.07;;;3.40;98.60;;;;;;5031699;28;20189;-74
2020/12/01 06:07:59;;;;;;;34.78;13.95;;;3.40;98.60;;;;;;5032751;28;20620;-72
2020/12/01 06:10:47;;;;;;;32.77;13.33;;;3.50;98.60;;;;;;5033485;28;20187;-73
2020/12/01 06:13:54;;;;;;;33.92;13.27;;;3.50;98.50;;;;;;5031438;28;21076;-74
2020/12/01 06:17:00;;;;;;;33.13;12.93;;;3.50;98.20;;;;;;4989469;28;20201;-71
2020/12/01 06:19:38;;;;;;;28.05;13.57;;;3.50;98.20;;;;;;4912790;29;20217;-74
2020/12/01 06:22:03;;;;;;;29.95;13.05;;;3.50;98.20;;;;;;4912701;29;20204;-73
2020/12/01 06:25:17;;;;;;;34.60;13.93;;;3.40;98.20;;;;;;4912569;29;20295;-72
2020/12/01 06:27:54;;;;;;;37.28;13.60;;;3.50;98.50;;;;;;4859474;29;20328;-72
2020/12/01 06:30:41;;;;;;;37.50;14.48;;;3.50;98.50;;;;;;4875065;29;21055;-72
2020/12/01 06:33:25;;;;;;;35.53;13.15;;;3.50;98.50;;;;;;4862433;29;20202;-73
2020/12/01 06:35:59;;;;;;;31.95;14.35;;;3.50;98.70;;;;;;4874368;29;20659;-72
2020/12/01 06:38:45;;;;;;;31.33;13.60;;;3.50;98.80;;;;;;4874964;29;20660;-73
2020/12/01 06:41:19;;;;;;;33.95;14.02;;;3.40;99.00;;;;;;4874950;29;20210;-73
2020/12/01 06:43:51;;;;;;;35.17;16.33;;;3.40;99.20;;;;;;4874361;29;20226;-73
2020/12/01 06:46:45;;;;;;;34.53;14.80;;;3.50;99.20;;;;;;4880981;29;20201;-73
2020/12/01 06:49:17;;;;;;;39.03;14.43;;;3.50;99.20;;;;;;4912535;29;20229;-72
2020/12/01 06:51:53;;;;;;;32.00;15.18;;;3.50;99.30;;;;;;4899998;29;20368;-72
2020/12/01 06:54:19;;;;;;;38.20;14.93;;;3.50;99.40;;;;;;4968868;28;20662;-73
2020/12/01 06:57:00;;;;;;;40.85;15.63;;;3.50;99.40;;;;;;4989099;28;20210;-73
2020/12/01 06:59:26;;;;;;;31.95;14.02;;;3.50;99.30;;;;;;4989437;28;20214;-72
2020/12/01 07:01:52;;;;;;;31.05;13.77;;;3.40;99.40;;;;;;4989586;28;20278;-72
2020/12/01 07:04:21;;;;;;;33.00;14.00;;;3.40;99.50;;;;;;5014823;28;20307;-75
2020/12/01 07:06:49;;;;;;;34.17;15.63;;;3.40;99.70;;;;;;5027219;28;20464;-72
2020/12/01 07:09:26;;;;;;;36.30;15.52;;;3.40;99.70;;;;;;5020861;28;20239;-72
2020/12/01 07:12:07;;;;;;;34.15;14.90;;;3.40;99.80;;;;;;5030094;28;20571;-73
2020/12/01 07:14:46;;;;;;;39.63;15.70;;;3.40;99.90;;;;;;5033602;28;20188;-72
2020/12/01 07:17:20;;;;;;;31.88;13.13;;;3.50;99.90;;;;;;5038690;28;20210;-74
2020/12/01 07:20:01;;;;;;;39.97;14.43;;;3.50;99.90;;;;;;5022651;28;20213;-71
2020/12/01 07:22:54;;;;;;;33.78;13.32;;;3.60;99.90;;;;;;5032206;28;20276;-73
2020/12/01 07:25:44;;;;;;;33.28;14.40;;;3.50;99.80;;;;;;5021998;28;20396;-73
2020/12/01 07:28:15;;;;;;;32.90;13.73;;;3.40;99.70;;;;;;5017249;28;20188;-73
2020/12/01 07:30:50;;;;;;;33.65;14.15;;;3.40;99.80;;;;;;5028903;28;20204;-72
2020/12/01 07:33:22;;;;;;;29.67;13.75;;;3.40;99.90;;;;;;5031032;28;20184;-75
2020/12/01 07:35:55;;;;;;;27.45;12.25;;;3.50;99.90;;;;;;5036315;28;20185;-72
2020/12/01 07:38:37;;;;;;;33.80;14.02;;;3.50;99.90;;;;;;5022853;28;20240;-74
2020/12/01 07:41:27;;;;;;;28.60;12.13;;;3.50;99.80;;;;;;5023850;28;20182;-74
2020/12/01 07:44:26;;;;;;;27.38;12.68;;;3.60;99.90;;;;;;5023087;28;20300;-74
2020/12/01 07:47:05;;;;;;;28.52;11.55;;;3.60;99.80;;;;;;5034395;28;20211;-76
2020/12/01 07:49:34;;;;;;;27.83;11.15;;;3.60;99.60;;;;;;5000144;28;20216;-76
2020/12/01 07:52:14;;;;;;;29.10;12.02;;;3.60;99.50;;;;;;5029912;28;20188;-75
2020/12/01 07:54:43;;;;;;;42.17;15.55;;;3.50;99.40;;;;;;5030892;28;20291;-76
2020/12/01 07:57:16;;;;;;;34.50;15.02;;;3.60;99.20;;;;;;5034793;28;20242;-77
2020/12/01 07:59:44;;;;;;;39.72;18.73;;;3.50;99.30;;;;;;5030180;28;21016;-75
2020/12/01 08:02:11;;;;;;;52.50;20.75;;;3.40;99.50;;;;;;5027296;28;20644;-75
2020/12/01 08:04:37;;;;;;;42.40;18.02;;;3.30;99.60;;;;;;5011246;28;20301;-74
2020/12/01 08:07:04;;;;;;;39.57;17.80;;;3.30;99.80;;;;;;5034217;28;20629;-72
2020/12/01 08:09:30;;;;;;;43.25;17.33;;;3.40;99.90;;;;;;5022247;28;20222;-75
2020/12/01 08:12:06;;;;;;;51.08;19.17;;;3.40;99.90;;;;;;5034978;28;20201;-73
2020/12/01 08:14:32;;;;;;;49.92;20.65;;;3.30;99.90;;;;;;5008097;28;20190;-72
2020/12/01 08:17:26;;;;;;;45.17;18.42;;;3.30;99.90;;;;;;5012130;28;20636;-72
2020/12/01 08:19:54;;;;;;;53.25;19.42;;;3.30;99.90;;;;;;5026309;28;20260;-72
2020/12/01 08:22:23;;;;;;;38.95;16.73;;;3.30;99.90;;;;;;5010582;28;20224;-75
2020/12/01 08:24:56;;;;;;;45.35;18.42;;;3.30;99.90;;;;;;5020738;28;20241;-72
2020/12/01 08:27:26;;;;;;;49.67;18.08;;;3.40;99.90;;;;;;5020839;28;20277;-73
2020/12/01 08:29:54;;;;;;;42.85;16.67;;;3.30;99.90;;;;;;5029986;28;20205;-74
2020/12/01 08:32:40;;;;;;;40.85;16.92;;;3.30;99.90;;;;;;5015642;28;20281;-74
2020/12/01 08:35:17;;;;;;;53.25;19.00;;;3.30;99.90;;;;;;5022970;28;20268;-72
2020/12/01 08:37:47;;;;;;;43.97;18.60;;;3.30;99.90;;;;;;5020566;28;20656;-75
2020/12/01 08:40:23;;;;;;;43.17;17.63;;;3.30;99.90;;;;;;5027679;28;20220;-72
2020/12/01 08:42:58;;;;;;;49.40;19.55;;;3.30;99.90;;;;;;5029374;28;20278;-74
2020/12/01 08:45:42;;;;;;;39.33;16.40;;;3.30;99.90;;;;;;5030995;28;20188;-73
2020/12/01 08:48:20;;;;;;;35.45;15.50;;;3.30;99.90;;;;;;5030803;28;20181;-73
2020/12/01 08:50:46;;;;;;;44.10;17.42;;;3.40;99.90;;;;;;5029941;28;20587;-72
2020/12/01 08:53:17;;;;;;;35.60;15.40;;;3.40;99.90;;;;;;5032062;28;20185;-72
2020/12/01 08:55:42;;;;;;;38.85;15.68;;;3.50;99.90;;;;;;5023935;28;20221;-72
2020/12/01 08:58:26;;;;;;;37.70;15.27;;;3.50;99.90;;;;;;5022203;28;20219;-74
2020/12/01 09:01:02;;;;;;;41.70;16.33;;;3.50;99.90;;;;;;5018319;28;20674;-72
2020/12/01 09:03:29;;;;;;;37.08;16.48;;;3.50;99.90;;;;;;5017245;28;20207;-73
2020/12/01 09:05:56;;;;;;;40.65;15.95;;;3.50;99.60;;;;;;5028287;28;20193;-74
2020/12/01 09:11:41;;;;;;;24.52;10.68;;;3.40;99.40;;;;;;5030591;28;20170;-72
2020/12/01 09:22:14;;;;;;;25.55;11.63;;;3.50;99.50;;;;;;5021586;28;20512;-74
2020/12/01 09:24:41;;;;;;;32.92;12.80;;;3.60;99.30;;;;;;5025154;28;20216;-72
2020/12/01 09:27:13;;;;;;;40.78;17.30;;;3.60;99.20;;;;;;5022226;28;20249;-74
2020/12/01 09:29:44;;;;;;;28.85;12.30;;;3.60;99.30;;;;;;5024156;28;20212;-73
2020/12/01 09:32:16;;;;;;;35.47;14.27;;;3.70;99.50;;;;;;5022899;28;20667;-75
2020/12/01 09:34:42;;;;;;;32.28;15.52;;;3.70;99.50;;;;;;5029358;28;20534;-73
2020/12/01 09:37:07;;;;;;;43.23;14.90;;;3.80;99.60;;;;;;5029468;28;20243;-73
2020/12/01 09:39:33;;;;;;;31.27;15.27;;;3.80;99.40;;;;;;5028810;28;20232;-74
2020/12/01 09:47:35;;;;;;;35.58;14.25;;;3.90;99.40;;;;;;5030380;28;20247;-73
2020/12/01 09:50:01;;;;;;;39.78;17.10;;;3.90;99.50;;;;;;5030288;28;20215;-75
2020/12/01 09:52:33;;;;;;;30.35;14.90;;;3.90;99.40;;;;;;5029753;28;20173;-74
2020/12/01 09:55:11;;;;;;;34.28;14.07;;;3.90;99.20;;;;;;5029897;28;20331;-75
2020/12/01 10:03:41;;;;;;;28.85;13.18;;;4.00;99.20;;;;;;5030314;28;20935;-73
2020/12/01 10:35:23;;;;;;;23.23;10.17;;;3.90;98.00;;;;;;5019886;28;20687;-72
2020/12/01 10:37:54;;;;;;;30.93;13.47;;;3.80;98.00;;;;;;5024478;28;20900;-75
2020/12/01 10:40:22;;;;;;;29.85;13.18;;;3.90;98.30;;;;;;5030124;28;20468;-75
2020/12/01 10:42:48;;;;;;;26.30;12.38;;;3.90;98.50;;;;;;5013662;28;20652;-74
2020/12/01 10:45:15;;;;;;;23.77;11.23;;;4.00;98.50;;;;;;5031562;28;20235;-73
2020/12/01 10:47:41;;;;;;;25.23;11.18;;;4.00;98.30;;;;;;5028747;28;20190;-75
2020/12/01 10:50:07;;;;;;;22.77;11.88;;;4.00;98.40;;;;;;5037543;28;20213;-74
2020/12/01 10:52:33;;;;;;;28.10;12.83;;;4.00;98.40;;;;;;5032016;28;20193;-75
2020/12/01 10:54:59;;;;;;;28.37;12.20;;;4.00;98.30;;;;;;5031213;28;20204;-76
2020/12/01 10:57:24;;;;;;;23.10;12.27;;;3.90;98.20;;;;;;5032574;28;20481;-75
2020/12/01 10:59:50;;;;;;;24.93;11.97;;;4.00;98.10;;;;;;5032970;28;20259;-74
2020/12/01 11:02:16;;;;;;;25.93;13.00;;;4.00;98.30;;;;;;5032728;28;20248;-73
2020/12/01 11:04:41;;;;;;;24.50;10.10;;;4.00;98.30;;;;;;5030838;28;20239;-73
2020/12/01 11:07:07;;;;;;;27.60;11.07;;;4.00;98.10;;;;;;5017416;28;20193;-75
2020/12/01 11:09:34;;;;;;;26.10;11.30;;;4.00;98.10;;;;;;5018637;28;20621;-75
2020/12/01 11:11:59;;;;;;;25.92;11.45;;;3.90;98.00;;;;;;5032088;28;20247;-74
2020/12/01 11:14:25;;;;;;;21.63;9.30;;;3.90;98.20;;;;;;5031628;28;20185;-74
2020/12/01 11:16:51;;;;;;;16.85;8.18;;;3.90;98.20;;;;;;5028176;28;20201;-73
2020/12/01 11:19:17;;;;;;;15.23;7.40;;;3.90;98.20;;;;;;5037296;28;20205;-73
2020/12/01 11:21:43;;;;;;;14.30;7.10;;;3.80;98.00;;;;;;5031420;28;20192;-74
2020/12/01 11:24:09;;;;;;;18.25;8.05;;;3.80;98.00;;;;;;5029314;28;20201;-73
2020/12/01 11:26:34;;;;;;;13.50;6.80;;;3.90;97.80;;;;;;5024209;28;20524;-74
2020/12/01 11:29:01;;;;;;;18.90;7.60;;;3.90;97.80;;;;;;5024927;28;20212;-74
2020/12/01 11:31:27;;;;;;;17.00;7.65;;;3.90;97.70;;;;;;5031714;28;20185;-75
2020/12/01 11:34:09;;;;;;;15.68;8.20;;;3.80;97.60;;;;;;5032581;28;20181;-73
2020/12/01 11:36:36;;;;;;;14.32;6.82;;;3.80;97.80;;;;;;5020739;28;20192;-73
2020/12/01 11:39:22;;;;;;;14.25;7.10;;;3.80;97.90;;;;;;5032387;28;20235;-73
2020/12/01 11:41:47;;;;;;;12.95;7.10;;;3.70;97.90;;;;;;5031269;28;20268;-73
2020/12/01 11:44:13;;;;;;;18.00;8.33;;;3.70;98.10;;;;;;5030848;28;20708;-74
2020/12/01 11:46:40;;;;;;;15.15;8.10;;;3.80;98.30;;;;;;5031081;28;20428;-73
2020/12/01 11:49:07;;;;;;;11.50;6.63;;;3.80;98.30;;;;;;5025954;28;20198;-72
2020/12/01 11:51:34;;;;;;;18.95;8.40;;;3.80;98.40;;;;;;5010409;28;20182;-73
2020/12/01 11:54:00;;;;;;;15.93;8.43;;;3.80;98.40;;;;;;5062122;28;20734;-72
2020/12/01 11:56:26;;;;;;;19.93;8.30;;;3.80;98.60;;;;;;5030500;28;20197;-74
2020/12/01 11:58:52;;;;;;;17.65;9.10;;;3.90;98.80;;;;;;5030995;28;20213;-74
2020/12/01 12:01:18;;;;;;;14.70;6.73;;;3.90;98.70;;;;;;5031072;28;20557;-73
2020/12/01 12:03:43;;;;;;;15.40;7.70;;;3.80;98.40;;;;;;5030547;28;20220;-74
2020/12/01 12:06:10;;;;;;;11.13;6.00;;;3.80;98.30;;;;;;5020620;28;20440;-74
2020/12/01 12:08:36;;;;;;;13.70;6.32;;;3.80;98.30;;;;;;5030845;28;20213;-73
2020/12/01 12:11:02;;;;;;;15.93;7.23;;;3.80;98.30;;;;;;5032149;28;20192;-75
2020/12/01 12:13:28;;;;;;;13.13;6.60;;;3.90;98.20;;;;;;5025661;28;20213;-73
2020/12/01 12:15:54;;;;;;;14.47;6.63;;;4.00;98.40;;;;;;5055336;28;20201;-73
2020/12/01 12:18:21;;;;;;;12.80;6.77;;;4.00;98.40;;;;;;5033509;28;20545;-74
2020/12/01 12:20:46;;;;;;;16.15;7.38;;;4.10;98.40;;;;;;5030187;28;20204;-73
2020/12/01 12:23:12;;;;;;;11.83;6.93;;;4.10;98.20;;;;;;5030292;28;20184;-73
2020/12/01 12:25:38;;;;;;;17.20;7.83;;;4.20;98.20;;;;;;5019296;28;20182;-74
2020/12/01 12:28:04;;;;;;;14.63;7.43;;;4.20;98.10;;;;;;5029468;28;20228;-73
2020/12/01 12:30:30;;;;;;;13.52;7.60;;;4.10;97.60;;;;;;5017812;28;20194;-74
2020/12/01 12:32:56;;;;;;;15.27;8.15;;;4.10;97.40;;;;;;5030274;28;20185;-74
2020/12/01 12:35:22;;;;;;;17.90;8.67;;;4.10;97.30;;;;;;5018589;28;20593;-74
2020/12/01 12:37:49;;;;;;;15.80;8.48;;;4.00;97.40;;;;;;5011870;28;20190;-73
2020/12/01 12:40:15;;;;;;;15.30;8.90;;;3.90;97.50;;;;;;5026795;28;20236;-72
2020/12/01 12:42:41;;;;;;;14.68;8.75;;;3.90;97.80;;;;;;5017952;28;20451;-76
2020/12/01 12:45:07;;;;;;;15.23;7.87;;;3.90;98.20;;;;;;5020683;28;20276;-73
2020/12/01 12:47:33;;;;;;;16.13;8.15;;;3.90;98.50;;;;;;5018795;28;20185;-75
2020/12/01 12:49:59;;;;;;;17.40;8.60;;;4.00;98.60;;;;;;5016873;28;20676;-72
2020/12/01 12:52:25;;;;;;;19.88;10.25;;;4.00;98.60;;;;;;5016775;28;20270;-72
2020/12/01 12:54:51;;;;;;;17.53;8.83;;;4.00;98.60;;;;;;5016002;28;20260;-72
2020/12/01 12:57:16;;;;;;;22.63;9.90;;;4.00;98.80;;;;;;5028742;28;20438;-74
2020/12/01 12:59:42;;;;;;;23.50;10.77;;;4.00;99.00;;;;;;5017608;28;20214;-72
2020/12/01 13:02:08;;;;;;;22.13;10.73;;;4.00;99.10;;;;;;5029450;28;20268;-74
2020/12/01 13:04:33;;;;;;;22.07;9.03;;;4.00;99.00;;;;;;5019185;28;20533;-74
2020/12/01 13:06:59;;;;;;;18.13;9.30;;;4.00;98.80;;;;;;5017543;28;20184;-74
2020/12/01 13:09:25;;;;;;;22.87;10.57;;;4.00;98.60;;;;;;5016218;28;20459;-72
2020/12/01 13:11:51;;;;;;;21.40;9.77;;;4.00;98.70;;;;;;5021731;28;20656;-74
2020/12/01 13:14:18;;;;;;;19.10;10.07;;;4.00;98.80;;;;;;5014096;28;20260;-75
2020/12/01 13:16:50;;;;;;;13.57;8.32;;;4.00;98.90;;;;;;5023365;28;20186;-73
2020/12/01 13:19:16;;;;;;;18.30;8.77;;;4.10;99.00;;;;;;5020614;28;21013;-73
2020/12/01 13:21:42;;;;;;;20.77;9.00;;;4.10;98.80;;;;;;5028523;28;20188;-73
2020/12/01 13:24:08;;;;;;;18.20;10.33;;;4.00;98.70;;;;;;5022925;28;20494;-73
2020/12/01 13:26:34;;;;;;;17.00;8.98;;;4.10;98.70;;;;;;5018049;28;20427;-72
2020/12/01 13:28:59;;;;;;;17.07;9.97;;;4.10;98.70;;;;;;5022078;28;20201;-73
2020/12/01 13:31:25;;;;;;;17.77;8.50;;;4.10;98.90;;;;;;5023063;28;20174;-72
2020/12/01 13:33:51;;;;;;;17.73;7.60;;;4.20;99.00;;;;;;5027910;28;20178;-75
2020/12/01 13:36:25;;;;;;;20.80;8.73;;;4.20;98.90;;;;;;5021918;28;20350;-74
2020/12/01 13:38:51;;;;;;;17.67;9.07;;;4.20;98.70;;;;;;5021454;28;20213;-75
2020/12/01 13:41:18;;;;;;;14.90;8.10;;;4.20;98.40;;;;;;5030774;28;20427;-73
2020/12/01 13:43:44;;;;;;;18.35;9.15;;;4.20;98.10;;;;;;5033545;28;20467;-75